Time;durP1;ratioP1;P1;durP2;ratioP2;P2;SDS_P1;SDS_P2;PMS_P1;PMS_P2;Temp;Humidity;BMP_temperature;BMP_pressure;BME280_temperature;BME280_humidity;BME280_pressure;Samples;Min_cycle;Max_cycle;Signal;HPM_P1;HPM_P2
2021/10/31 00:01:29;;;;;;;7.65;0.98;;;;;;;12.30;100.00;100459.16;5069925;28;20048;-41
2021/10/31 00:03:57;;;;;;;7.15;0.90;;;;;;;12.28;100.00;100453.03;5071108;28;20040;-40
2021/10/31 00:06:25;;;;;;;5.45;0.77;;;;;;;12.28;100.00;100461.44;5070844;28;20049;-39
2021/10/31 00:08:53;;;;;;;4.05;0.90;;;;;;;12.26;100.00;100458.13;5070490;28;20052;-37
2021/10/31 00:11:22;;;;;;;9.23;0.75;;;;;;;12.25;100.00;100462.06;5070692;28;20036;-37
2021/10/31 00:13:50;;;;;;;4.18;0.80;;;;;;;12.22;100.00;100462.72;5074803;28;20099;-39
2021/10/31 00:16:18;;;;;;;3.55;0.63;;;;;;;12.23;100.00;100459.59;5073453;28;20071;-36
2021/10/31 00:18:46;;;;;;;3.65;0.80;;;;;;;12.24;100.00;100466.03;5074871;28;20094;-37
2021/10/31 00:21:14;;;;;;;7.32;0.93;;;;;;;12.23;100.00;100473.59;5074918;28;20049;-34
2021/10/31 00:23:41;;;;;;;7.53;0.88;;;;;;;12.21;100.00;100469.44;5074284;28;20044;-34
2021/10/31 00:26:09;;;;;;;6.88;0.80;;;;;;;12.19;100.00;100464.16;5074677;28;20044;-32
2021/10/31 00:28:38;;;;;;;6.97;0.90;;;;;;;12.19;100.00;100475.38;5074841;28;20036;-36
2021/10/31 00:31:06;;;;;;;6.80;0.80;;;;;;;12.21;100.00;100472.25;5073963;28;20376;-38
2021/10/31 00:33:34;;;;;;;5.65;0.77;;;;;;;12.22;100.00;100480.31;5074428;28;20044;-38
2021/10/31 00:36:01;;;;;;;6.13;0.88;;;;;;;12.24;100.00;100477.22;5073948;28;20051;-32
2021/10/31 00:38:29;;;;;;;3.40;0.82;;;;;;;12.23;100.00;100478.34;5074221;28;20524;-33
2021/10/31 00:40:57;;;;;;;7.47;1.05;;;;;;;12.22;100.00;100485.09;5074370;28;20136;-34
2021/10/31 00:43:25;;;;;;;4.60;0.98;;;;;;;12.11;100.00;100481.75;5070254;28;20545;-30
2021/10/31 00:45:54;;;;;;;4.57;1.08;;;;;;;11.98;100.00;100491.03;5074747;28;20056;-34
2021/10/31 00:48:22;;;;;;;3.83;0.70;;;;;;;11.78;100.00;100492.38;5074104;28;20040;-35
2021/10/31 00:50:52;;;;;;;6.18;0.90;;;;;;;11.63;100.00;100489.88;5073676;28;20051;-36
2021/10/31 00:53:21;;;;;;;2.25;0.60;;;;;;;11.52;100.00;100488.47;5073858;28;20047;-37
2021/10/31 00:55:48;;;;;;;3.55;0.68;;;;;;;11.43;100.00;100496.75;5074426;28;20048;-33
2021/10/31 00:58:18;;;;;;;6.53;1.15;;;;;;;11.28;100.00;100488.72;5073292;28;20409;-36
2021/10/31 01:00:47;;;;;;;5.57;1.15;;;;;;;11.19;100.00;100496.22;5074352;28;20401;-37
2021/10/31 01:03:16;;;;;;;5.22;0.95;;;;;;;11.11;100.00;100506.13;5073869;28;20052;-38
2021/10/31 01:05:49;;;;;;;7.45;1.35;;;;;;;11.01;100.00;100503.53;5073608;28;20107;-36
2021/10/31 01:08:40;;;;;;;2.55;0.90;;;;;;;10.92;100.00;100499.84;5073787;28;20059;-32
2021/10/31 01:11:22;;;;;;;7.55;1.42;;;;;;;10.86;100.00;100501.06;5068990;28;20052;-40
2021/10/31 01:14:05;;;;;;;6.15;1.20;;;;;;;10.83;100.00;100493.31;5073633;28;20055;-36
2021/10/31 01:16:46;;;;;;;7.85;1.50;;;;;;;10.83;100.00;100507.25;5064549;28;20044;-34
2021/10/31 01:19:55;;;;;;;6.78;2.13;;;;;;;10.76;100.00;100498.50;5073314;28;20083;-33
2021/10/31 01:22:35;;;;;;;7.78;2.40;;;;;;;10.67;100.00;100498.38;5020205;28;20394;-38
2021/10/31 01:25:25;;;;;;;6.60;2.15;;;;;;;10.69;100.00;100501.69;5072977;28;20044;-34
2021/10/31 01:28:06;;;;;;;7.45;2.28;;;;;;;10.68;100.00;100502.81;5073751;28;20139;-39
2021/10/31 01:30:41;;;;;;;7.60;2.42;;;;;;;10.68;100.00;100509.22;5068022;28;20037;-41
2021/10/31 01:33:20;;;;;;;9.40;2.90;;;;;;;10.69;100.00;100502.50;5072792;28;20040;-37
2021/10/31 01:35:56;;;;;;;11.68;3.67;;;;;;;10.67;100.00;100496.41;5068328;28;20045;-34
2021/10/31 01:38:35;;;;;;;9.60;3.85;;;;;;;10.68;100.00;100500.03;5073557;28;20052;-33
2021/10/31 01:41:10;;;;;;;14.75;4.70;;;;;;;10.60;100.00;100495.16;5073170;28;20505;-34
2021/10/31 01:43:45;;;;;;;11.82;4.93;;;;;;;10.55;100.00;100490.50;5059962;28;20070;-31
2021/10/31 01:46:21;;;;;;;12.85;5.40;;;;;;;10.51;100.00;100492.25;5073112;28;20052;-40
2021/10/31 01:48:59;;;;;;;16.63;6.00;;;;;;;10.47;100.00;100490.38;5073387;28;20052;-36
2021/10/31 01:51:39;;;;;;;10.88;5.45;;;;;;;10.44;100.00;100491.81;5073100;28;20072;-36
2021/10/31 01:54:12;;;;;;;16.83;5.97;;;;;;;10.38;100.00;100501.44;5060146;28;20051;-36
2021/10/31 01:56:43;;;;;;;11.85;5.60;;;;;;;10.36;100.00;100489.75;5073213;28;20052;-39
2021/10/31 01:59:17;;;;;;;16.85;6.13;;;;;;;10.35;100.00;100496.47;5073331;28;20142;-29
2021/10/31 02:01:46;;;;;;;11.68;4.60;;;;;;;10.34;100.00;100487.28;5072592;28;20052;-37
2021/10/31 02:04:16;;;;;;;9.32;4.30;;;;;;;10.34;100.00;100492.84;5072842;28;20124;-33
2021/10/31 02:06:49;;;;;;;10.00;4.10;;;;;;;10.40;100.00;100492.75;5073215;28;20051;-34
2021/10/31 02:09:20;;;;;;;9.00;4.10;;;;;;;10.45;100.00;100503.81;5072595;28;20047;-38
2021/10/31 02:11:49;;;;;;;16.67;4.50;;;;;;;10.48;100.00;100498.44;5065900;28;20041;-32
2021/10/31 02:14:18;;;;;;;10.95;3.70;;;;;;;10.50;100.00;100498.16;5072877;28;20104;-39
2021/10/31 02:16:47;;;;;;;15.40;5.18;;;;;;;10.49;100.00;100500.09;5072402;28;20056;-35
2021/10/31 02:19:21;;;;;;;15.75;5.40;;;;;;;10.48;100.00;100492.03;5072625;28;20140;-36
2021/10/31 02:21:56;;;;;;;11.77;4.25;;;;;;;10.47;100.00;100490.38;5069676;28;20051;-36
2021/10/31 02:24:26;;;;;;;14.80;4.75;;;;;;;10.47;100.00;100494.00;5072738;28;20098;-34
2021/10/31 02:26:53;;;;;;;13.25;5.13;;;;;;;10.48;100.00;100498.44;5072541;28;20053;-34
2021/10/31 02:29:21;;;;;;;11.38;4.57;;;;;;;10.49;100.00;100500.09;5072522;28;20052;-34
2021/10/31 02:31:49;;;;;;;15.32;5.78;;;;;;;10.47;100.00;100491.22;5071974;28;20048;-37
2021/10/31 02:34:17;;;;;;;12.07;5.20;;;;;;;10.48;100.00;100498.44;5072386;28;20076;-38
2021/10/31 02:36:44;;;;;;;14.25;5.63;;;;;;;10.48;100.00;100497.63;5071638;28;20059;-34
2021/10/31 02:39:13;;;;;;;14.00;6.13;;;;;;;10.48;100.00;100511.56;5072337;28;20528;-35
2021/10/31 02:41:42;;;;;;;17.75;5.80;;;;;;;10.46;100.00;100511.03;5071651;28;20059;-38
2021/10/31 02:44:10;;;;;;;16.40;5.68;;;;;;;10.44;100.00;100502.16;5071679;28;20079;-34
2021/10/31 02:46:38;;;;;;;13.73;5.45;;;;;;;10.42;100.00;100502.47;5071746;28;20063;-33
2021/10/31 02:49:08;;;;;;;13.25;6.00;;;;;;;10.40;100.00;100501.94;5072266;28;20041;-43
2021/10/31 02:51:44;;;;;;;14.07;6.25;;;;;;;10.40;100.00;100503.91;5069945;28;20039;-33
2021/10/31 02:54:22;;;;;;;11.43;5.13;;;;;;;10.39;100.00;100499.47;5071914;28;20052;-35
2021/10/31 02:57:00;;;;;;;16.23;6.05;;;;;;;10.38;100.00;100497.81;5071284;28;20090;-37
2021/10/31 02:59:40;;;;;;;11.57;4.88;;;;;;;10.38;100.00;100497.81;5072329;28;20036;-37
2021/10/31 03:02:09;;;;;;;15.75;5.13;;;;;;;10.34;100.00;100497.59;5071824;28;20056;-32
2021/10/31 03:04:38;;;;;;;12.80;5.05;;;;;;;10.32;100.00;100488.72;5068142;28;20386;-34
2021/10/31 03:07:05;;;;;;;16.65;5.03;;;;;;;10.31;100.00;100496.25;5071786;28;20059;-39
2021/10/31 03:09:34;;;;;;;16.73;5.43;;;;;;;10.27;100.00;100486.00;5071407;28;20048;-38
2021/10/31 03:12:06;;;;;;;14.82;5.68;;;;;;;10.25;100.00;100491.06;5070958;28;20044;-35
2021/10/31 03:14:34;;;;;;;12.45;5.55;;;;;;;10.23;100.00;100491.38;5071642;28;20060;-32
2021/10/31 03:17:02;;;;;;;12.38;5.03;;;;;;;10.23;100.00;100493.31;5071579;28;20040;-40
2021/10/31 03:19:30;;;;;;;9.68;4.72;;;;;;;10.21;100.00;100476.91;5069401;28;20048;-36
2021/10/31 03:21:58;;;;;;;13.48;4.72;;;;;;;10.19;100.00;100487.53;5071460;28;20044;-32
2021/10/31 03:24:26;;;;;;;12.75;5.10;;;;;;;10.19;100.00;100481.16;5071426;28;20052;-34
2021/10/31 03:26:54;;;;;;;13.20;5.20;;;;;;;10.17;100.00;100487.00;5070682;28;20044;-34
2021/10/31 03:29:24;;;;;;;18.42;5.63;;;;;;;10.16;100.00;100484.50;5071345;28;20052;-37
2021/10/31 03:31:52;;;;;;;10.90;5.53;;;;;;;10.13;100.00;100482.34;5070665;28;20048;-35
2021/10/31 03:34:20;;;;;;;13.73;6.55;;;;;;;10.11;100.00;100487.38;5071210;28;20047;-35
2021/10/31 03:36:49;;;;;;;10.10;5.13;;;;;;;10.09;100.00;100482.13;5071326;28;20040;-33
2021/10/31 03:39:18;;;;;;;12.38;6.30;;;;;;;10.06;100.00;100490.25;5066998;28;20521;-37
2021/10/31 03:41:46;;;;;;;13.50;6.93;;;;;;;10.05;100.00;100491.38;5071031;28;20060;-34
2021/10/31 03:44:15;;;;;;;13.55;6.97;;;;;;;10.02;100.00;100488.06;5070872;28;20063;-38
2021/10/31 03:46:45;;;;;;;15.45;5.80;;;;;;;10.03;100.00;100486.94;5070233;28;20108;-32
2021/10/31 03:49:14;;;;;;;11.45;5.15;;;;;;;10.02;100.00;100499.22;5071075;28;20044;-40
2021/10/31 03:51:41;;;;;;;16.85;6.05;;;;;;;10.02;100.00;100501.19;5071319;28;20049;-32
2021/10/31 03:54:09;;;;;;;9.43;5.30;;;;;;;10.00;100.00;100495.91;5070160;28;20401;-32
2021/10/31 03:56:37;;;;;;;13.27;5.70;;;;;;;9.98;100.00;100489.84;5071117;28;20170;-36
2021/10/31 03:59:05;;;;;;;11.48;5.97;;;;;;;9.94;100.00;100497.16;5070959;28;20084;-32
2021/10/31 04:01:33;;;;;;;11.38;5.95;;;;;;;9.92;100.00;100495.78;5071014;28;20485;-35
2021/10/31 04:04:03;;;;;;;11.88;6.53;;;;;;;9.88;100.00;100489.16;5070881;28;20040;-31
2021/10/31 04:06:31;;;;;;;14.95;7.40;;;;;;;9.80;100.00;100503.78;5070072;28;20040;-33
2021/10/31 04:08:58;;;;;;;14.38;7.13;;;;;;;9.73;100.00;100494.97;5070429;28;20044;-37
2021/10/31 04:11:26;;;;;;;12.45;7.63;;;;;;;9.69;100.00;100494.75;5070320;28;20486;-37
2021/10/31 04:13:54;;;;;;;10.07;6.40;;;;;;;9.68;100.00;100501.47;5070596;28;20401;-33
2021/10/31 04:16:22;;;;;;;12.27;7.18;;;;;;;9.60;100.00;100493.75;5069594;28;20084;-35
2021/10/31 04:18:51;;;;;;;16.00;8.18;;;;;;;9.56;100.00;100496.34;5070750;28;20490;-37
2021/10/31 04:21:21;;;;;;;12.40;7.03;;;;;;;9.54;100.00;100493.03;5070419;28;20055;-35
2021/10/31 04:23:48;;;;;;;15.07;7.85;;;;;;;9.48;100.00;100494.22;5070757;28;20064;-35
2021/10/31 04:26:16;;;;;;;14.02;7.43;;;;;;;9.46;100.00;100487.31;5064103;28;20059;-39
2021/10/31 04:28:44;;;;;;;13.02;7.05;;;;;;;9.44;100.00;100484.00;5070214;28;20041;-34
2021/10/31 04:31:12;;;;;;;13.93;7.80;;;;;;;9.43;100.00;100482.31;5070651;28;20057;-31
2021/10/31 04:33:39;;;;;;;15.02;7.28;;;;;;;9.43;100.00;100482.31;5070547;28;20560;-36
2021/10/31 04:36:07;;;;;;;15.25;7.47;;;;;;;9.38;100.00;100486.03;5069931;28;20044;-36
2021/10/31 04:38:36;;;;;;;16.20;6.90;;;;;;;9.37;100.00;100481.59;5071050;28;20047;-34
2021/10/31 04:41:05;;;;;;;14.32;7.18;;;;;;;9.35;100.00;100480.25;5070536;28;20049;-35
2021/10/31 04:43:33;;;;;;;9.98;5.97;;;;;;;9.35;100.00;100480.25;5070204;28;20052;-32
2021/10/31 04:46:01;;;;;;;18.02;7.65;;;;;;;9.32;100.00;100479.72;5070176;28;20055;-38
2021/10/31 04:48:29;;;;;;;14.27;7.93;;;;;;;9.31;100.00;100475.25;5070624;28;20079;-39
2021/10/31 04:50:57;;;;;;;16.58;7.82;;;;;;;9.32;100.00;100476.91;5069690;28;20048;-38
2021/10/31 04:53:25;;;;;;;14.43;7.50;;;;;;;9.31;100.00;100485.56;5070703;28;20050;-35
2021/10/31 04:55:54;;;;;;;12.75;7.05;;;;;;;9.29;100.00;100483.09;5070453;28;20048;-34
2021/10/31 04:58:22;;;;;;;13.07;7.50;;;;;;;9.29;100.00;100485.88;5067937;28;20041;-34
2021/10/31 05:00:50;;;;;;;13.35;7.55;;;;;;;9.27;100.00;100493.69;5074105;28;20048;-35
2021/10/31 05:03:17;;;;;;;14.45;7.78;;;;;;;9.27;100.00;100496.47;5073350;28;20094;-31
2021/10/31 05:05:45;;;;;;;13.68;7.28;;;;;;;9.26;100.00;100494.00;5073968;28;20806;-35
2021/10/31 05:08:13;;;;;;;14.27;7.60;;;;;;;9.27;100.00;100493.69;5073869;28;20072;-35
2021/10/31 05:10:40;;;;;;;13.55;7.43;;;;;;;9.28;100.00;100488.94;5073550;28;20045;-34
2021/10/31 05:13:10;;;;;;;13.48;8.07;;;;;;;9.28;100.00;100498.13;5073521;28;20139;-33
2021/10/31 05:15:38;;;;;;;14.23;7.57;;;;;;;9.29;100.00;100493.41;5073641;28;20037;-32
2021/10/31 05:18:06;;;;;;;12.82;7.70;;;;;;;9.28;100.00;100492.56;5073055;28;20048;-34
2021/10/31 05:20:34;;;;;;;15.68;8.20;;;;;;;9.28;100.00;100487.00;5073594;28;20379;-33
2021/10/31 05:23:02;;;;;;;13.05;6.85;;;;;;;9.28;100.00;100472.25;5073824;28;20071;-36
2021/10/31 05:25:29;;;;;;;13.68;8.20;;;;;;;9.26;100.00;100472.53;5072788;28;20048;-35
2021/10/31 05:27:57;;;;;;;14.18;8.13;;;;;;;9.24;100.00;100474.78;5073396;28;20036;-38
2021/10/31 05:30:26;;;;;;;13.50;8.75;;;;;;;9.25;100.00;100464.50;5073616;28;20413;-32
2021/10/31 05:32:54;;;;;;;15.77;8.75;;;;;;;9.23;100.00;100470.34;5072535;28;20060;-36
2021/10/31 05:35:22;;;;;;;17.30;8.77;;;;;;;9.21;100.00;100467.03;5071752;28;20078;-38
2021/10/31 05:37:56;;;;;;;16.52;8.82;;;;;;;9.21;100.00;100464.25;5070857;28;20045;-38
2021/10/31 05:40:25;;;;;;;16.08;9.48;;;;;;;9.19;100.00;100462.94;5071789;28;20048;-39
2021/10/31 05:42:53;;;;;;;15.93;8.75;;;;;;;9.18;100.00;100455.72;5071779;28;20067;-37
2021/10/31 05:45:21;;;;;;;15.07;8.35;;;;;;;9.16;100.00;100464.34;5060852;28;20045;-33
2021/10/31 05:47:52;;;;;;;21.45;10.48;;;;;;;9.15;100.00;100461.88;5071807;28;20047;-37
2021/10/31 05:50:21;;;;;;;14.77;9.73;;;;;;;9.14;100.00;100457.44;5073478;28;20448;-37
2021/10/31 05:52:49;;;;;;;15.15;9.35;;;;;;;9.11;100.00;100452.44;5072126;28;20413;-38
2021/10/31 05:55:17;;;;;;;17.90;9.73;;;;;;;9.10;100.00;100453.56;5073147;28;20046;-40
2021/10/31 05:57:45;;;;;;;15.68;9.75;;;;;;;9.05;100.00;100443.34;5072755;28;20099;-36
2021/10/31 06:00:15;;;;;;;17.58;10.10;;;;;;;9.03;100.00;100444.75;5072444;28;20040;-36
2021/10/31 06:02:44;;;;;;;15.10;10.23;;;;;;;9.00;100.00;100435.03;5073218;28;20512;-29
2021/10/31 06:05:14;;;;;;;16.95;10.20;;;;;;;8.99;100.00;100430.63;5072883;28;20044;-34
2021/10/31 06:07:42;;;;;;;14.73;9.55;;;;;;;8.97;100.00;100424.53;5072462;28;20417;-38
2021/10/31 06:10:12;;;;;;;15.88;9.77;;;;;;;8.98;100.00;100426.19;5071959;28;20083;-34
2021/10/31 06:12:43;;;;;;;18.65;10.98;;;;;;;8.98;100.00;100426.19;5072749;28;20178;-33
2021/10/31 06:15:12;;;;;;;15.87;9.83;;;;;;;8.98;100.00;100428.97;5072239;28;20036;-32
2021/10/31 06:17:40;;;;;;;18.80;11.23;;;;;;;8.97;100.00;100425.38;5072603;28;20052;-36
2021/10/31 06:20:10;;;;;;;13.63;10.30;;;;;;;8.99;100.00;100427.84;5072645;28;20076;-33
2021/10/31 06:22:40;;;;;;;19.25;10.55;;;;;;;9.00;100.00;100432.25;5071990;28;20045;-34
2021/10/31 06:25:10;;;;;;;20.17;11.05;;;;;;;8.99;100.00;100427.84;5072498;28;20051;-34
2021/10/31 06:27:38;;;;;;;18.08;11.13;;;;;;;8.97;100.00;100428.16;5071942;28;20052;-30
2021/10/31 06:30:07;;;;;;;16.40;10.85;;;;;;;8.96;100.00;100422.88;5072121;28;20067;-33
2021/10/31 06:32:35;;;;;;;22.77;11.63;;;;;;;8.95;100.00;100426.78;5071892;28;20041;-32
2021/10/31 06:35:04;;;;;;;19.60;11.93;;;;;;;8.96;100.00;100445.16;5069905;28;20421;-41
2021/10/31 06:37:32;;;;;;;19.75;11.50;;;;;;;8.91;100.00;100443.25;5072204;28;20398;-38
2021/10/31 06:40:01;;;;;;;14.70;10.77;;;;;;;8.91;100.00;100428.50;5071378;28;20040;-33
2021/10/31 06:42:29;;;;;;;16.55;10.93;;;;;;;8.89;100.00;100433.53;5071013;28;20053;-36
2021/10/31 06:44:57;;;;;;;13.75;10.35;;;;;;;8.89;100.00;100430.75;5071143;28;20044;-31
2021/10/31 06:47:25;;;;;;;15.98;11.10;;;;;;;8.90;100.00;100422.13;5071690;28;20482;-32
2021/10/31 06:49:53;;;;;;;17.88;10.77;;;;;;;8.89;100.00;100414.91;5071365;28;20036;-35
2021/10/31 06:52:22;;;;;;;13.73;9.80;;;;;;;8.88;100.00;100406.84;5072317;28;20040;-34
2021/10/31 06:54:51;;;;;;;15.27;11.10;;;;;;;8.86;100.00;100396.00;5071600;28;20048;-34
2021/10/31 06:57:20;;;;;;;18.90;11.20;;;;;;;8.86;100.00;100393.22;5067678;28;20058;-37
2021/10/31 06:59:48;;;;;;;16.92;11.85;;;;;;;8.83;100.00;100387.44;5071721;28;20123;-35
2021/10/31 07:02:16;;;;;;;16.65;11.55;;;;;;;8.85;100.00;100399.91;5071413;28;20037;-32
2021/10/31 07:04:44;;;;;;;14.80;11.30;;;;;;;8.85;100.00;100385.19;5071210;28;20109;-37
2021/10/31 07:07:12;;;;;;;16.25;11.23;;;;;;;8.86;100.00;100386.84;5071723;28;20044;-40
2021/10/31 07:09:40;;;;;;;18.27;11.68;;;;;;;8.85;100.00;100394.34;5071726;28;20433;-31
2021/10/31 07:12:08;;;;;;;15.85;11.57;;;;;;;8.85;100.00;100383.22;5071113;28;20365;-34
2021/10/31 07:14:38;;;;;;;18.42;12.75;;;;;;;8.88;100.00;100390.16;5071276;28;20143;-34
2021/10/31 07:17:05;;;;;;;19.48;12.70;;;;;;;8.84;100.00;100395.47;5070899;28;20048;-37
2021/10/31 07:19:33;;;;;;;19.48;13.07;;;;;;;8.85;100.00;100385.19;5071331;28;20044;-38
2021/10/31 07:22:01;;;;;;;17.00;12.20;;;;;;;8.87;100.00;100380.97;5070362;28;20044;-32
2021/10/31 07:24:29;;;;;;;15.82;11.73;;;;;;;8.90;100.00;100379.56;5070777;28;20132;-41
2021/10/31 07:26:57;;;;;;;16.95;12.05;;;;;;;8.92;100.00;100369.78;5071151;28;20055;-32
2021/10/31 07:29:25;;;;;;;16.83;10.98;;;;;;;8.94;100.00;100367.53;5071238;28;20572;-30
2021/10/31 07:31:59;;;;;;;15.55;11.68;;;;;;;8.95;100.00;100360.00;5070082;28;20485;-32
2021/10/31 07:34:26;;;;;;;18.77;12.48;;;;;;;8.96;100.00;100365.28;5071232;28;20079;-35
2021/10/31 07:36:54;;;;;;;19.63;11.48;;;;;;;8.97;100.00;100360.53;5070820;28;20056;-34
2021/10/31 07:39:22;;;;;;;17.95;12.32;;;;;;;8.99;100.00;100347.16;5069535;28;20055;-37
2021/10/31 07:41:50;;;;;;;19.13;12.50;;;;;;;8.99;100.00;100355.50;5069636;28;20056;-33
2021/10/31 07:44:20;;;;;;;18.38;12.98;;;;;;;9.02;100.00;100360.44;5059916;28;20044;-32
2021/10/31 07:46:48;;;;;;;18.58;13.27;;;;;;;9.04;100.00;100355.41;5069770;28;20060;-39
2021/10/31 07:49:17;;;;;;;16.10;11.93;;;;;;;9.09;100.00;100340.59;5070715;28;20048;-35
2021/10/31 07:51:45;;;;;;;15.20;10.85;;;;;;;9.09;100.00;100349.75;5070203;28;20055;-31
2021/10/31 07:54:13;;;;;;;15.43;10.25;;;;;;;9.11;100.00;100367.00;5066076;28;20067;-35
2021/10/31 07:56:41;;;;;;;18.73;10.90;;;;;;;9.13;100.00;100370.31;5070452;28;20056;-32
2021/10/31 07:59:08;;;;;;;17.27;10.77;;;;;;;9.18;100.00;100384.16;5069625;28;20048;-39
2021/10/31 08:01:37;;;;;;;17.02;11.93;;;;;;;9.21;100.00;100389.09;5070319;28;20063;-38
2021/10/31 08:04:05;;;;;;;15.85;10.60;;;;;;;9.23;100.00;100384.06;5070091;28;20044;-35
2021/10/31 08:06:34;;;;;;;18.38;11.23;;;;;;;9.27;100.00;100379.53;5069622;28;20507;-38
2021/10/31 08:09:02;;;;;;;14.32;10.25;;;;;;;9.30;100.00;100362.25;5070099;28;20513;-37
2021/10/31 08:11:30;;;;;;;18.20;11.15;;;;;;;9.33;100.00;100358.84;5069720;28;20475;-35
2021/10/31 08:13:59;;;;;;;19.45;11.30;;;;;;;9.39;100.00;100340.13;5069618;28;20055;-40
2021/10/31 08:16:26;;;;;;;15.45;9.95;;;;;;;9.44;100.00;100333.59;5070146;28;20057;-36
2021/10/31 08:18:54;;;;;;;14.98;9.52;;;;;;;9.47;100.00;100335.78;5070139;28;20573;-37
2021/10/31 08:21:22;;;;;;;14.75;9.82;;;;;;;9.50;100.00;100340.75;5069519;28;20048;-31
2021/10/31 08:23:51;;;;;;;16.92;10.38;;;;;;;9.51;100.00;100323.75;5069767;28;20052;-33
2021/10/31 08:26:19;;;;;;;19.60;10.65;;;;;;;9.55;100.00;100324.78;5069926;28;20099;-41
2021/10/31 08:28:48;;;;;;;13.60;9.73;;;;;;;9.59;100.00;100322.22;5069251;28;20106;-37
2021/10/31 08:31:23;;;;;;;13.13;9.38;;;;;;;9.63;100.00;100317.66;5070317;28;20413;-33
2021/10/31 08:33:55;;;;;;;12.52;9.23;;;;;;;9.67;100.00;100315.94;5072237;28;20041;-38
2021/10/31 08:36:23;;;;;;;16.05;9.75;;;;;;;9.72;100.00;100315.00;5073724;28;20505;-37
2021/10/31 08:38:53;;;;;;;12.15;8.48;;;;;;;9.77;100.00;100301.81;5073678;28;20045;-43
2021/10/31 08:41:22;;;;;;;13.77;8.20;;;;;;;9.84;100.00;100305.00;5073638;28;20505;-37
2021/10/31 08:43:51;;;;;;;11.77;7.80;;;;;;;9.90;100.00;100303.78;5073532;28;20139;-39
2021/10/31 08:46:19;;;;;;;13.07;9.10;;;;;;;9.92;100.00;100301.53;5073711;28;20517;-36
2021/10/31 08:48:48;;;;;;;12.75;8.20;;;;;;;10.01;100.00;100296.03;5072907;28;20045;-35
2021/10/31 08:51:17;;;;;;;12.95;8.25;;;;;;;10.10;100.00;100291.41;5073997;28;20489;-37
2021/10/31 08:53:44;;;;;;;13.90;7.70;;;;;;;10.21;100.00;100283.69;5073347;28;20048;-32
2021/10/31 08:56:13;;;;;;;11.40;8.25;;;;;;;10.30;100.00;100268.72;5072840;28;20052;-39
2021/10/31 08:58:42;;;;;;;12.82;8.48;;;;;;;10.41;100.00;100274.03;5073158;28;20048;-35
2021/10/31 09:01:11;;;;;;;11.93;8.00;;;;;;;10.49;100.00;100279.72;5073101;28;20062;-42
2021/10/31 09:03:39;;;;;;;11.10;7.65;;;;;;;10.55;100.00;100272.06;5073376;28;20136;-43
2021/10/31 09:06:08;;;;;;;11.10;6.95;;;;;;;10.60;100.00;100261.59;5073980;28;20060;-34
2021/10/31 09:08:36;;;;;;;10.00;7.22;;;;;;;10.64;100.00;100268.22;5073874;28;20059;-36
2021/10/31 09:11:04;;;;;;;12.20;7.72;;;;;;;10.70;100.00;100260.56;5073378;28;20044;-37
2021/10/31 09:13:33;;;;;;;10.70;7.20;;;;;;;10.74;100.00;100242.06;5073560;28;20075;-34
2021/10/31 09:16:01;;;;;;;10.57;7.50;;;;;;;10.82;100.00;100237.66;5073634;28;20045;-36
2021/10/31 09:18:31;;;;;;;13.05;7.70;;;;;;;10.87;100.00;100238.38;5073148;28;20044;-36
2021/10/31 09:20:58;;;;;;;10.95;7.25;;;;;;;10.93;100.00;100236.28;5073557;28;20383;-37
2021/10/31 09:23:26;;;;;;;10.07;7.28;;;;;;;10.95;100.00;100218.09;5072969;28;20049;-35
2021/10/31 09:25:54;;;;;;;10.80;7.95;;;;;;;11.03;100.00;100214.50;5073374;28;20036;-36
2021/10/31 09:28:22;;;;;;;11.18;7.28;;;;;;;11.08;100.00;100216.34;5073811;28;20056;-37
2021/10/31 09:30:51;;;;;;;13.48;8.45;;;;;;;11.13;100.00;100207.84;5071606;28;20056;-33
2021/10/31 09:33:19;;;;;;;12.32;8.00;;;;;;;11.21;100.00;100204.28;5073681;28;20041;-33
2021/10/31 09:35:49;;;;;;;8.57;7.20;;;;;;;11.27;100.00;100199.38;5072965;28;20067;-33
2021/10/31 09:38:19;;;;;;;11.50;7.45;;;;;;;11.30;100.00;100198.75;5073158;28;20052;-34
2021/10/31 09:40:48;;;;;;;10.20;7.43;;;;;;;11.30;100.00;100207.94;5072979;28;20074;-37
2021/10/31 09:43:16;;;;;;;8.65;7.13;;;;;;;11.31;100.00;100198.44;5073632;28;20056;-36
2021/10/31 09:45:44;;;;;;;10.38;7.03;;;;;;;11.35;100.00;100195.81;5071619;28;20048;-34
2021/10/31 09:48:16;;;;;;;8.75;6.75;;;;;;;11.34;100.00;100180.22;5073572;28;20071;-41
2021/10/31 09:50:45;;;;;;;10.77;7.05;;;;;;;11.35;100.00;100177.09;5072893;28;20049;-31
2021/10/31 09:53:22;;;;;;;10.30;7.40;;;;;;;11.37;100.00;100158.06;5070535;28;20131;-40
2021/10/31 09:55:50;;;;;;;7.10;5.83;;;;;;;11.40;100.00;100157.38;5072899;28;20485;-35
2021/10/31 09:58:21;;;;;;;9.68;7.45;;;;;;;11.41;100.00;100152.63;5073221;28;20127;-36
2021/10/31 10:00:52;;;;;;;9.63;6.55;;;;;;;11.38;100.00;100147.69;5072551;28;20049;-40
2021/10/31 10:03:25;;;;;;;9.25;7.18;;;;;;;11.41;100.00;100141.44;5072805;28;20044;-32
2021/10/31 10:06:15;;;;;;;10.18;7.22;;;;;;;11.43;100.00;100130.78;5072436;28;20055;-36
2021/10/31 10:09:05;;;;;;;9.75;7.10;;;;;;;11.44;100.00;100126.00;5069618;28;20052;-32
2021/10/31 10:11:35;;;;;;;9.98;7.22;;;;;;;11.41;100.00;100121.88;5072565;28;20098;-33
2021/10/31 10:14:12;;;;;;;10.60;6.60;;;;;;;11.41;100.00;100130.28;5072160;28;20052;-36
2021/10/31 10:16:40;;;;;;;8.52;6.32;;;;;;;11.44;100.00;100134.41;5072402;28;20041;-36
2021/10/31 10:19:18;;;;;;;10.85;7.13;;;;;;;11.38;100.00;100126.19;5072802;28;20055;-35
2021/10/31 10:21:56;;;;;;;8.85;6.80;;;;;;;11.37;100.00;100124.53;5071866;28;20088;-36
2021/10/31 10:24:25;;;;;;;7.68;5.80;;;;;;;11.40;100.00;100118.28;5070426;28;20498;-37
2021/10/31 10:26:58;;;;;;;9.75;6.68;;;;;;;11.40;100.00;100111.88;5071625;28;20041;-37
2021/10/31 10:29:28;;;;;;;8.15;6.50;;;;;;;11.43;100.00;100100.03;5069510;28;20036;-32
2021/10/31 10:31:59;;;;;;;9.00;6.35;;;;;;;11.47;100.00;100105.81;5072500;28;20041;-33
2021/10/31 10:34:44;;;;;;;7.97;6.18;;;;;;;11.44;100.00;100115.66;5071029;28;20052;-34
2021/10/31 10:37:14;;;;;;;8.63;6.30;;;;;;;11.45;100.00;100105.31;5072198;28;20055;-35
2021/10/31 10:39:44;;;;;;;8.57;6.82;;;;;;;11.47;100.00;100101.06;5072396;28;20131;-30
2021/10/31 10:42:19;;;;;;;9.13;6.68;;;;;;;11.48;100.00;100088.72;5071533;28;20041;-37
2021/10/31 10:44:47;;;;;;;9.00;6.40;;;;;;;11.50;100.00;100092.03;5071358;28;20047;-33
2021/10/31 10:47:19;;;;;;;8.23;6.80;;;;;;;11.46;100.00;100077.06;5071965;28;20047;-34
2021/10/31 10:49:49;;;;;;;;;;;;;;;11.45;100.00;100072.63;5072059;28;20048;-37
2021/10/31 10:52:23;;;;;;;7.18;5.57;;;;;;;11.48;100.00;100065.56;5072173;28;20301;-37
2021/10/31 10:55:00;;;;;;;8.27;6.18;;;;;;;11.52;100.00;100069.34;5071160;28;20062;-35
2021/10/31 10:57:31;;;;;;;11.55;6.35;;;;;;;11.53;100.00;100054.22;5071749;28;20066;-37
2021/10/31 11:00:03;;;;;;;10.55;6.53;;;;;;;11.52;100.00;100050.63;5071862;28;20075;-31
2021/10/31 11:02:31;;;;;;;7.65;6.35;;;;;;;11.53;100.00;100046.69;5071285;28;20040;-32
2021/10/31 11:05:03;;;;;;;8.60;6.03;;;;;;;11.55;100.00;100063.13;5071593;28;20510;-39
2021/10/31 11:07:39;;;;;;;7.68;5.95;;;;;;;11.57;100.00;100038.47;5071944;28;20078;-38
2021/10/31 11:10:10;;;;;;;8.43;5.97;;;;;;;11.57;100.00;100030.09;5070835;28;20079;-36
2021/10/31 11:12:39;;;;;;;11.93;7.03;;;;;;;11.56;100.00;100029.28;5058763;28;20040;-36
2021/10/31 11:15:09;;;;;;;11.05;6.57;;;;;;;11.56;100.00;100015.28;5071237;28;20041;-38
2021/10/31 11:17:38;;;;;;;8.07;5.93;;;;;;;11.57;100.00;100004.94;5071084;28;20099;-40
2021/10/31 11:20:09;;;;;;;9.85;6.05;;;;;;;11.55;100.00;100004.44;5065027;28;20053;-37
2021/10/31 11:22:40;;;;;;;9.77;6.20;;;;;;;11.54;100.00;99998.03;5071310;28;20040;-34
2021/10/31 11:25:11;;;;;;;8.40;5.72;;;;;;;11.57;100.00;99996.56;5070829;28;20056;-37
2021/10/31 11:27:39;;;;;;;6.95;5.90;;;;;;;11.62;100.00;99999.16;5071588;28;20592;-38